Aeroporto :
LOGIN :

Iscrizione | Disclaimer

   EN    FR    IT 

 










Sommario :    VFR   VFR Marginale   IFR   IFR Intensivo   IFR Molto Intensivo
Visibilità : 
Base nubi : 
>= 8 km
>= 3000ft
5 / 8 km
1000 / 3000 ft
1500m / 5 km
500 / 1000 ft
800 / 1500m
200 / 500 ft
< 800m
< 200 ft
Simboli :   Temporali  Nebbia  Neve Forte  Precipitazioni Forti  Vento > 20 kt
SIGMETs :   Varie  Temporali  Ghiacco  Turbolenza  Onda orograficha  Ceneri Vulcaniche






- Altitudine del aeroporto : 327 ft
- Codice IATA : BHX


EGBB - Birmingham

ULTIMO METAR :
  • 090450Z 32003KT CAVOK 10/07 Q1024

METARs OBSOLETI :
  • 090420Z AUTO 33003KT 9999 NCD 10/07 Q1024
  • 090350Z AUTO 32003KT 9999 NCD 11/07 Q1024
  • 090320Z AUTO 34003KT 9999 NCD 11/07 Q1024
  • 090250Z AUTO 34004KT 9999 NCD 11/06 Q1024

TAF TAF EGBB
Valido dal 09 a 00 ore il 10 a 00 ore UTC


082259Z 0900/0924 VRB03KT CAVOK
TEMPO 0902/0912 8000
PROB30
TEMPO 0903/0906 4000 BR
BECMG 0909/0912 10010KT
BECMG 0912/0915 BKN045
ATIS : +44 121 780 0910



MetMap, La meteo Aeronautica in un colpo d'occhio ! - Copyright ORBIFLY Dicembre 2007 - Disclaimer

ORBIFLY MET'MAP TEAM :

Programmazione e sviluppo : Alexandra Zaïnal
Concezione : Baudouin d'Aumeries
Aiuto per la programmazione : Marc-Olivier Méhu
Supporto tecnico e logistico : Manuel Goepfert
Aiuto per la traduzione : Arnaldo La Scala

Contatto : metmap@orbifly.com




FONTI E CREDITI :

   NOAA